createdAt,value
2023-06-28T00:01:21.134Z,1.00
2023-06-28T00:03:49.842Z,1.50
2023-06-28T00:06:17.009Z,1.30
2023-06-28T00:08:44.064Z,1.00
2023-06-28T00:11:11.208Z,1.02
2023-06-28T00:13:38.535Z,1.00
2023-06-28T00:16:05.731Z,0.90
2023-06-28T00:18:34.480Z,0.93
2023-06-28T00:21:04.116Z,1.20
2023-06-28T00:23:33.337Z,1.13
2023-06-28T00:26:00.440Z,1.30
2023-06-28T00:28:27.551Z,1.33
2023-06-28T00:30:54.645Z,1.35
2023-06-28T00:33:22.219Z,1.20
2023-06-28T00:35:50.320Z,1.17
2023-06-28T00:38:17.877Z,1.15
2023-06-28T00:40:45.638Z,1.40
2023-06-28T00:43:14.126Z,0.90
2023-06-28T00:45:41.300Z,1.10
2023-06-28T00:48:10.640Z,0.93
2023-06-28T00:50:38.679Z,1.23
2023-06-28T00:53:06.186Z,1.35
2023-06-28T00:55:33.403Z,1.08
2023-06-28T00:58:02.134Z,1.30
2023-06-28T01:00:29.331Z,1.00
2023-06-28T01:02:56.675Z,1.65
2023-06-28T01:05:23.930Z,1.23
2023-06-28T01:07:53.343Z,1.67
2023-06-28T01:10:21.735Z,1.52
2023-06-28T01:12:50.322Z,2.05
2023-06-28T01:15:18.030Z,1.20
2023-06-28T01:17:45.328Z,3.13
2023-06-28T01:20:12.593Z,1.90
2023-06-28T01:22:45.285Z,1.75
2023-06-28T01:25:12.645Z,1.13
2023-06-28T01:27:46.394Z,1.30
2023-06-28T01:30:18.671Z,1.38
2023-06-28T01:32:46.169Z,1.20
2023-06-28T01:35:15.858Z,1.33
2023-06-28T01:37:44.359Z,0.90
2023-06-28T01:40:13.266Z,0.80
2023-06-28T01:42:42.121Z,0.77
2023-06-28T01:45:09.935Z,0.90
2023-06-28T01:47:37.367Z,1.13
2023-06-28T01:50:07.111Z,0.82
2023-06-28T01:52:35.205Z,0.98
2023-06-28T01:55:02.410Z,0.57
2023-06-28T01:57:29.676Z,0.80
2023-06-28T01:59:56.825Z,0.70
2023-06-28T02:02:24.004Z,0.70
2023-06-28T02:04:51.178Z,0.65
2023-06-28T02:07:18.510Z,0.70
2023-06-28T02:09:46.206Z,0.60
2023-06-28T02:12:13.332Z,0.70
2023-06-28T02:14:40.797Z,0.60
2023-06-28T02:17:15.430Z,0.73
2023-06-28T02:19:43.328Z,0.80
2023-06-28T02:22:10.493Z,0.70
2023-06-28T02:24:37.662Z,0.80
2023-06-28T02:27:05.494Z,0.80
2023-06-28T02:29:32.771Z,0.80
2023-06-28T02:32:00.780Z,0.73
2023-06-28T02:34:28.188Z,0.70
2023-06-28T02:36:55.603Z,0.70
2023-06-28T02:39:23.105Z,0.70
2023-06-28T02:41:50.224Z,0.68
2023-06-28T02:44:17.473Z,0.60
2023-06-28T02:46:46.089Z,0.70
2023-06-28T02:49:13.365Z,0.70
2023-06-28T02:51:40.443Z,0.70
2023-06-28T02:54:10.445Z,0.70
2023-06-28T02:56:38.063Z,0.77
2023-06-28T02:59:23.793Z,0.60
2023-06-28T03:01:53.879Z,0.82
2023-06-28T03:04:21.055Z,1.00
2023-06-28T03:06:50.674Z,1.02
2023-06-28T03:09:18.073Z,1.00
2023-06-28T03:11:45.190Z,1.00
2023-06-28T03:14:12.663Z,0.80
2023-06-28T03:16:40.578Z,1.42
2023-06-28T03:19:09.415Z,1.60
2023-06-28T03:21:36.588Z,1.13
2023-06-28T03:24:05.214Z,1.08
2023-06-28T03:26:32.349Z,0.80
2023-06-28T03:28:59.772Z,0.73
2023-06-28T03:31:28.630Z,0.80
2023-06-28T03:33:55.832Z,0.90
2023-06-28T03:36:24.689Z,0.80
2023-06-28T03:38:54.772Z,0.60
2023-06-28T03:41:22.154Z,0.50
2023-06-28T03:43:50.838Z,0.70
2023-06-28T03:46:17.972Z,0.60
2023-06-28T03:48:45.200Z,0.70
2023-06-28T03:51:12.354Z,0.70
2023-06-28T03:53:39.506Z,0.60
2023-06-28T03:56:06.677Z,0.68
2023-06-28T03:58:33.791Z,0.80
2023-06-28T04:01:03.544Z,0.85
2023-06-28T04:03:30.638Z,0.80
2023-06-28T04:05:57.853Z,0.63
2023-06-28T04:08:27.986Z,0.73
2023-06-28T04:10:56.312Z,0.88
2023-06-28T04:13:26.864Z,0.82
2023-06-28T04:15:54.640Z,0.77
2023-06-28T04:18:22.259Z,0.80
2023-06-28T04:20:49.336Z,0.75
2023-06-28T04:23:16.417Z,0.80
2023-06-28T04:25:43.482Z,0.80
2023-06-28T04:28:10.818Z,0.70
2023-06-28T04:30:39.182Z,0.70
2023-06-28T04:33:06.458Z,0.70
2023-06-28T04:35:35.994Z,0.70
2023-06-28T04:38:04.508Z,0.82
2023-06-28T04:40:34.141Z,0.90
2023-06-28T04:43:01.276Z,0.60
2023-06-28T04:45:38.822Z,0.60
2023-06-28T04:48:07.045Z,0.50
2023-06-28T04:50:39.013Z,0.60
2023-06-28T04:53:07.004Z,0.40
2023-06-28T04:55:35.978Z,0.55
2023-06-28T04:58:04.477Z,0.80
2023-06-28T05:00:32.067Z,0.60
2023-06-28T05:03:01.540Z,0.60
2023-06-28T05:05:29.025Z,0.52
2023-06-28T05:07:56.773Z,0.50
2023-06-28T05:10:25.452Z,0.60
2023-06-28T05:12:53.479Z,0.60
2023-06-28T05:15:21.006Z,0.68
2023-06-28T05:17:48.477Z,0.40
2023-06-28T05:20:16.255Z,0.60
2023-06-28T05:22:51.297Z,0.60
2023-06-28T05:25:18.481Z,0.50
2023-06-28T05:27:45.533Z,0.50
2023-06-28T05:30:12.831Z,0.60
2023-06-28T05:32:40.353Z,0.50
2023-06-28T05:35:07.879Z,0.50
2023-06-28T05:37:35.008Z,0.60
2023-06-28T05:40:02.197Z,0.60
2023-06-28T05:42:29.352Z,0.60
2023-06-28T05:44:56.486Z,0.55
2023-06-28T05:47:23.602Z,0.60
2023-06-28T05:49:50.818Z,0.60
2023-06-28T05:52:18.161Z,0.65
2023-06-28T05:54:45.309Z,0.70
2023-06-28T05:57:12.616Z,0.70
2023-06-28T05:59:39.897Z,0.80
2023-06-28T06:02:07.655Z,0.47
2023-06-28T06:04:34.894Z,0.77
2023-06-28T06:07:02.141Z,0.75
2023-06-28T06:09:30.704Z,0.85
2023-06-28T06:11:58.034Z,0.63
2023-06-28T06:14:25.177Z,0.50
2023-06-28T06:16:52.346Z,0.73
2023-06-28T06:19:19.430Z,0.60
2023-06-28T06:21:46.481Z,0.70
2023-06-28T06:24:13.610Z,0.47
2023-06-28T06:26:40.774Z,0.50
2023-06-28T06:29:07.920Z,0.77
2023-06-28T06:31:34.998Z,0.68
2023-06-28T06:34:02.563Z,0.68
2023-06-28T06:36:30.156Z,0.57
2023-06-28T06:38:58.566Z,0.63
2023-06-28T06:41:25.817Z,0.40
2023-06-28T06:43:53.084Z,0.40
2023-06-28T06:46:21.482Z,0.47
2023-06-28T06:48:48.978Z,0.35
2023-06-28T06:51:16.439Z,0.30
2023-06-28T06:53:43.720Z,0.60
2023-06-28T06:56:11.874Z,0.22
2023-06-28T06:58:39.001Z,0.50
2023-06-28T07:01:06.149Z,0.60
2023-06-28T07:03:33.257Z,0.47
2023-06-28T07:06:00.652Z,0.43
2023-06-28T07:08:28.305Z,0.40
2023-06-28T07:10:55.545Z,0.32
2023-06-28T07:13:22.745Z,0.38
2023-06-28T07:15:49.950Z,0.30
2023-06-28T07:18:17.580Z,0.40
2023-06-28T07:20:44.902Z,0.32
2023-06-28T07:23:12.071Z,0.40
2023-06-28T07:25:40.383Z,0.38
2023-06-28T07:28:07.897Z,0.60
2023-06-28T07:30:54.738Z,0.40
2023-06-28T07:33:23.601Z,0.30
2023-06-28T07:35:54.592Z,0.60
2023-06-28T07:38:22.107Z,0.30
2023-06-28T07:40:50.086Z,0.30
2023-06-28T07:43:18.321Z,0.40
2023-06-28T07:45:45.647Z,0.50
2023-06-28T07:48:13.410Z,0.40
2023-06-28T07:50:40.622Z,0.57
2023-06-28T07:53:07.738Z,0.30
2023-06-28T07:55:34.883Z,0.40
2023-06-28T07:58:03.090Z,0.55
2023-06-28T08:00:30.234Z,0.40
2023-06-28T08:02:57.338Z,0.47
2023-06-28T08:05:24.484Z,0.57
2023-06-28T08:07:55.875Z,0.70
2023-06-28T08:10:27.623Z,0.25
2023-06-28T08:12:55.820Z,0.40
2023-06-28T08:15:22.916Z,0.52
2023-06-28T08:17:50.146Z,0.40
2023-06-28T08:20:18.875Z,0.47
2023-06-28T08:22:46.004Z,0.60
2023-06-28T08:25:13.640Z,0.90
2023-06-28T08:27:40.758Z,0.68
2023-06-28T08:30:08.472Z,0.60
2023-06-28T08:32:37.166Z,0.60
2023-06-28T08:35:05.577Z,0.85
2023-06-28T08:37:35.666Z,0.50
2023-06-28T08:40:05.382Z,0.75
2023-06-28T08:42:35.313Z,0.65
2023-06-28T08:45:04.940Z,0.75
2023-06-28T08:47:33.650Z,0.80
2023-06-28T08:50:00.893Z,0.80
2023-06-28T08:52:29.802Z,0.80
2023-06-28T08:54:58.909Z,0.88
2023-06-28T08:57:26.158Z,0.60
2023-06-28T08:59:53.697Z,0.60
2023-06-28T09:02:22.642Z,0.80
2023-06-28T09:04:50.873Z,0.90
2023-06-28T09:07:20.484Z,0.80
2023-06-28T09:09:51.730Z,0.70
2023-06-28T09:12:21.160Z,0.70
2023-06-28T09:14:48.388Z,0.70
2023-06-28T09:17:15.544Z,0.90
2023-06-28T09:19:42.728Z,0.50
2023-06-28T09:22:12.633Z,0.73
2023-06-28T09:24:40.408Z,0.75
2023-06-28T09:27:08.893Z,0.60
2023-06-28T09:29:36.101Z,1.00
2023-06-28T09:32:04.008Z,0.95
2023-06-28T09:34:31.164Z,0.70
2023-06-28T09:36:59.429Z,0.75
2023-06-28T09:39:27.085Z,0.60
2023-06-28T09:41:55.280Z,0.50
2023-06-28T09:44:30.894Z,0.60
2023-06-28T09:47:16.012Z,0.90
2023-06-28T09:49:43.296Z,1.10
2023-06-28T09:52:10.368Z,0.73
2023-06-28T09:54:46.609Z,1.08
2023-06-28T09:57:14.228Z,1.13
2023-06-28T09:59:42.824Z,0.60
2023-06-28T10:02:11.146Z,0.68
2023-06-28T10:04:40.000Z,0.63
2023-06-28T10:07:09.255Z,1.00
2023-06-28T10:09:40.863Z,0.70
2023-06-28T10:12:14.165Z,0.68
2023-06-28T10:14:45.852Z,0.80
2023-06-28T10:17:13.885Z,0.60
2023-06-28T10:19:41.232Z,0.85
2023-06-28T10:22:08.690Z,0.60
2023-06-28T10:24:37.634Z,0.93
2023-06-28T10:27:06.646Z,1.08
2023-06-28T10:29:34.189Z,0.95
2023-06-28T10:32:02.281Z,1.00
2023-06-28T10:34:30.420Z,1.25
2023-06-28T10:36:57.815Z,1.42
2023-06-28T10:39:25.528Z,1.30
2023-06-28T10:41:59.488Z,1.17
2023-06-28T10:44:26.646Z,1.50
2023-06-28T10:47:13.115Z,1.30
2023-06-28T10:49:43.779Z,1.20
2023-06-28T10:52:15.192Z,1.17
2023-06-28T10:54:42.336Z,1.40
2023-06-28T10:57:12.448Z,1.17
2023-06-28T10:59:43.509Z,1.20
2023-06-28T11:02:10.781Z,0.90
2023-06-28T11:04:53.902Z,0.95
2023-06-28T11:07:25.661Z,1.90
2023-06-28T11:10:18.120Z,1.23
2023-06-28T11:12:49.362Z,1.17
2023-06-28T11:15:27.205Z,0.98
2023-06-28T11:17:54.470Z,1.10
2023-06-28T11:20:21.600Z,1.85
2023-06-28T11:22:53.088Z,1.30
2023-06-28T11:25:30.055Z,1.27
2023-06-28T11:28:04.602Z,1.25
2023-06-28T11:30:55.898Z,1.42
2023-06-28T11:33:24.349Z,1.27
2023-06-28T11:35:52.681Z,1.45
2023-06-28T11:38:20.850Z,1.52
2023-06-28T11:40:47.972Z,2.08
2023-06-28T11:43:15.284Z,1.65
2023-06-28T11:45:43.179Z,1.85
2023-06-28T11:48:11.759Z,1.42
2023-06-28T11:50:40.618Z,1.30
2023-06-28T11:53:07.769Z,1.38
2023-06-28T11:55:34.973Z,1.50
2023-06-28T11:58:02.114Z,1.45
2023-06-28T12:00:42.220Z,1.27
2023-06-28T12:03:09.516Z,1.30
2023-06-28T12:05:36.731Z,1.50
2023-06-28T12:08:03.975Z,1.27
2023-06-28T12:10:36.464Z,1.30
2023-06-28T12:13:03.762Z,1.20
2023-06-28T12:15:30.867Z,1.10
2023-06-28T12:17:58.170Z,1.35
2023-06-28T12:20:25.304Z,1.45
2023-06-28T12:22:55.816Z,1.50
2023-06-28T12:25:27.998Z,1.48
2023-06-28T12:28:04.097Z,0.80
2023-06-28T12:30:31.423Z,1.42
2023-06-28T12:32:59.125Z,1.38
2023-06-28T12:35:27.546Z,1.20
2023-06-28T12:37:58.651Z,1.30
2023-06-28T12:40:30.952Z,1.42
2023-06-28T12:43:13.913Z,1.50
2023-06-28T12:45:46.836Z,1.30
2023-06-28T12:48:18.301Z,1.35
2023-06-28T12:50:49.763Z,1.27
2023-06-28T12:53:17.208Z,1.58
2023-06-28T12:55:44.613Z,1.40
2023-06-28T12:58:12.517Z,1.50
2023-06-28T13:00:44.238Z,1.40
2023-06-28T13:03:14.545Z,1.50
2023-06-28T13:05:42.475Z,1.67
2023-06-28T13:08:11.783Z,1.30
2023-06-28T13:10:39.013Z,1.63
2023-06-28T13:13:06.175Z,1.98
2023-06-28T13:15:33.307Z,1.30
2023-06-28T13:18:00.454Z,1.13
2023-06-28T13:20:27.686Z,1.20
2023-06-28T13:22:55.528Z,1.65
2023-06-28T13:25:22.785Z,1.45
2023-06-28T13:27:50.082Z,1.20
2023-06-28T13:30:17.225Z,1.45
2023-06-28T13:32:44.569Z,1.30
2023-06-28T13:35:12.485Z,1.40
2023-06-28T13:37:39.717Z,1.25
2023-06-28T13:40:08.142Z,1.10
2023-06-28T13:42:35.243Z,1.60
2023-06-28T13:45:02.422Z,1.40
2023-06-28T13:47:29.575Z,1.77
2023-06-28T13:49:57.553Z,1.73
2023-06-28T13:52:24.753Z,1.95
2023-06-28T13:54:51.938Z,1.80
2023-06-28T13:57:19.059Z,1.58
2023-06-28T13:59:46.161Z,1.70
2023-06-28T14:02:14.130Z,1.85
2023-06-28T14:04:41.385Z,1.42
2023-06-28T14:07:08.525Z,1.67
2023-06-28T14:09:36.456Z,2.17
2023-06-28T14:12:04.699Z,1.25
2023-06-28T14:14:31.860Z,1.15
2023-06-28T14:16:59.600Z,2.00
2023-06-28T14:19:26.811Z,3.40
2023-06-28T14:21:53.875Z,3.45
2023-06-28T14:24:20.966Z,1.85
2023-06-28T14:26:50.110Z,2.20
2023-06-28T14:29:17.200Z,1.50
2023-06-28T14:31:44.261Z,1.50
2023-06-28T14:34:11.444Z,1.83
2023-06-28T14:36:38.887Z,1.80
2023-06-28T14:39:06.270Z,2.38
2023-06-28T14:41:33.388Z,1.90
2023-06-28T14:44:00.472Z,1.45
2023-06-28T14:46:27.822Z,1.02
2023-06-28T14:48:55.199Z,1.17
2023-06-28T14:51:22.372Z,1.00
2023-06-28T14:53:49.515Z,0.68
2023-06-28T14:56:16.590Z,0.90
2023-06-28T14:58:43.682Z,0.80
2023-06-28T15:01:10.758Z,0.65
2023-06-28T15:03:38.010Z,0.82
2023-06-28T15:06:05.112Z,0.70
2023-06-28T15:08:33.514Z,0.50
2023-06-28T15:11:01.103Z,0.68
2023-06-28T15:13:28.332Z,0.50
2023-06-28T15:15:55.661Z,0.60
2023-06-28T15:18:23.030Z,0.60
2023-06-28T15:20:50.152Z,0.70
2023-06-28T15:23:17.818Z,0.70
2023-06-28T15:25:45.203Z,0.60
2023-06-28T15:28:15.160Z,0.80
2023-06-28T15:30:42.753Z,0.80
2023-06-28T15:33:11.186Z,0.50
2023-06-28T15:35:38.341Z,0.65
2023-06-28T15:38:05.448Z,0.60
2023-06-28T15:40:33.293Z,0.70
2023-06-28T15:43:00.448Z,0.60
2023-06-28T15:45:28.166Z,0.60
2023-06-28T15:47:55.430Z,0.70
2023-06-28T15:50:23.072Z,0.70
2023-06-28T15:52:50.360Z,0.60
2023-06-28T15:55:25.080Z,0.60
2023-06-28T15:57:52.473Z,0.32
2023-06-28T16:00:19.879Z,0.60
2023-06-28T16:02:50.225Z,0.60
2023-06-28T16:05:17.668Z,0.57
2023-06-28T16:07:44.794Z,0.88
2023-06-28T16:10:11.927Z,0.80
2023-06-28T16:12:39.029Z,0.70
2023-06-28T16:15:07.090Z,0.80
2023-06-28T16:17:35.045Z,0.68
2023-06-28T16:20:03.986Z,0.77
2023-06-28T16:22:32.594Z,0.70
2023-06-28T16:24:59.904Z,1.00
2023-06-28T16:27:27.198Z,0.98
2023-06-28T16:29:57.123Z,0.50
2023-06-28T16:32:24.626Z,1.02
2023-06-28T16:34:51.857Z,0.60
2023-06-28T16:37:18.990Z,0.98
2023-06-28T16:39:46.150Z,0.88
2023-06-28T16:42:13.248Z,1.10
2023-06-28T16:44:40.391Z,0.75
2023-06-28T16:47:07.563Z,1.00
2023-06-28T16:49:34.712Z,0.73
2023-06-28T16:52:01.800Z,0.70
2023-06-28T16:54:28.974Z,0.80
2023-06-28T16:56:56.139Z,1.08
2023-06-28T16:59:23.338Z,1.17
2023-06-28T17:01:50.433Z,1.08
2023-06-28T17:04:17.560Z,1.17
2023-06-28T17:06:44.648Z,1.42
2023-06-28T17:09:11.807Z,1.25
2023-06-28T17:11:38.910Z,1.00
2023-06-28T17:14:08.184Z,0.75
2023-06-28T17:16:38.449Z,1.40
2023-06-28T17:19:05.581Z,0.90
2023-06-28T17:21:32.899Z,0.95
2023-06-28T17:23:59.992Z,1.10
2023-06-28T17:26:31.196Z,0.70
2023-06-28T17:29:00.101Z,0.65
2023-06-28T17:31:27.796Z,0.52
2023-06-28T17:33:56.427Z,0.80
2023-06-28T17:36:25.350Z,0.85
2023-06-28T17:38:52.537Z,0.80
2023-06-28T17:41:19.642Z,0.90
2023-06-28T17:43:46.756Z,0.70
2023-06-28T17:46:14.147Z,0.50
2023-06-28T17:48:41.304Z,0.60
2023-06-28T17:51:09.386Z,0.50
2023-06-28T17:53:37.520Z,0.55
2023-06-28T17:56:05.317Z,0.80
2023-06-28T17:58:32.438Z,0.50
2023-06-28T18:00:59.548Z,0.40
2023-06-28T18:03:26.743Z,0.40
2023-06-28T18:05:53.969Z,0.75
2023-06-28T18:08:21.253Z,0.70
2023-06-28T18:10:48.774Z,0.50
2023-06-28T18:13:16.024Z,0.50
2023-06-28T18:15:43.167Z,0.50
2023-06-28T18:18:10.338Z,0.50
2023-06-28T18:20:37.423Z,0.55
2023-06-28T18:23:04.532Z,0.43
2023-06-28T18:25:31.743Z,0.45
2023-06-28T18:27:58.851Z,0.40
2023-06-28T18:30:26.224Z,0.40
2023-06-28T18:32:53.584Z,0.60
2023-06-28T18:35:20.807Z,0.40
2023-06-28T18:37:48.013Z,0.40
2023-06-28T18:40:15.108Z,0.50
2023-06-28T18:42:42.206Z,0.20
2023-06-28T18:45:12.283Z,0.38
2023-06-28T18:47:39.428Z,0.50
2023-06-28T18:50:06.935Z,0.30
2023-06-28T18:52:34.107Z,0.60
2023-06-28T18:55:01.389Z,0.63
2023-06-28T18:57:29.199Z,0.40
2023-06-28T18:59:56.233Z,0.40
2023-06-28T19:02:23.505Z,0.40
2023-06-28T19:04:50.668Z,0.40
2023-06-28T19:07:19.062Z,0.50
2023-06-28T19:09:46.198Z,0.40
2023-06-28T19:12:13.410Z,0.30
2023-06-28T19:14:43.332Z,0.30
2023-06-28T19:17:10.667Z,0.32
2023-06-28T19:19:37.805Z,0.45
2023-06-28T19:22:05.312Z,0.60
2023-06-28T19:24:32.402Z,0.40
2023-06-28T19:26:59.537Z,0.50
2023-06-28T19:29:26.605Z,0.60
2023-06-28T19:31:54.821Z,0.60
2023-06-28T19:34:21.946Z,0.50
2023-06-28T19:36:49.095Z,0.68
2023-06-28T19:39:16.209Z,0.50
2023-06-28T19:41:43.407Z,0.60
2023-06-28T19:44:10.441Z,0.80
2023-06-28T19:46:37.659Z,0.80
2023-06-28T19:49:04.870Z,0.63
2023-06-28T19:51:32.019Z,0.75
2023-06-28T19:53:59.138Z,1.00
2023-06-28T19:56:26.344Z,0.88
2023-06-28T19:58:53.496Z,0.60
2023-06-28T20:01:21.135Z,0.75
2023-06-28T20:03:48.970Z,0.98
2023-06-28T20:06:16.212Z,0.85
2023-06-28T20:08:43.400Z,0.90
2023-06-28T20:11:11.276Z,0.70
2023-06-28T20:13:39.268Z,0.50
2023-06-28T20:16:07.068Z,0.70
2023-06-28T20:18:34.237Z,0.73
2023-06-28T20:21:01.415Z,0.70
2023-06-28T20:23:28.659Z,0.70
2023-06-28T20:25:55.851Z,0.68
2023-06-28T20:28:23.000Z,0.88
2023-06-28T20:30:50.652Z,1.00
2023-06-28T20:33:17.958Z,0.80
2023-06-28T20:35:45.710Z,0.77
2023-06-28T20:38:12.980Z,0.80
2023-06-28T20:40:40.121Z,0.65
2023-06-28T20:43:08.953Z,0.70
2023-06-28T20:45:36.191Z,0.55
2023-06-28T20:48:04.323Z,0.85
2023-06-28T20:50:31.560Z,0.55
2023-06-28T20:52:58.698Z,0.65
2023-06-28T20:55:26.308Z,0.50
2023-06-28T20:57:53.451Z,0.60
2023-06-28T21:00:24.515Z,0.75
2023-06-28T21:02:51.784Z,0.70
2023-06-28T21:05:18.995Z,0.57
2023-06-28T21:07:46.168Z,0.40
2023-06-28T21:10:13.610Z,0.60
2023-06-28T21:12:40.815Z,0.50
2023-06-28T21:15:08.569Z,0.50
2023-06-28T21:17:36.387Z,0.47
2023-06-28T21:20:05.420Z,0.50
2023-06-28T21:22:32.573Z,0.35
2023-06-28T21:24:59.663Z,0.43
2023-06-28T21:27:26.807Z,0.43
2023-06-28T21:29:54.445Z,0.40
2023-06-28T21:32:21.644Z,0.50
2023-06-28T21:34:48.753Z,0.50
2023-06-28T21:37:16.099Z,0.57
2023-06-28T21:39:43.271Z,0.55
2023-06-28T21:42:10.526Z,0.40
2023-06-28T21:44:38.179Z,0.40
2023-06-28T21:47:05.615Z,0.40
2023-06-28T21:49:33.031Z,0.40
2023-06-28T21:52:00.216Z,0.40
2023-06-28T21:54:27.481Z,0.60
2023-06-28T21:56:54.688Z,0.40
2023-06-28T21:59:22.156Z,0.55
2023-06-28T22:01:50.076Z,0.47
2023-06-28T22:04:17.664Z,0.40
2023-06-28T22:07:01.136Z,0.30
2023-06-28T22:09:31.937Z,0.50
2023-06-28T22:11:59.066Z,0.50
2023-06-28T22:14:26.183Z,0.40
2023-06-28T22:16:54.580Z,0.50
2023-06-28T22:19:23.900Z,0.60
2023-06-28T22:21:52.514Z,0.45
2023-06-28T22:24:19.674Z,0.30
2023-06-28T22:26:46.813Z,0.50
2023-06-28T22:29:13.972Z,0.75
2023-06-28T22:31:41.173Z,0.55
2023-06-28T22:34:08.357Z,0.47
2023-06-28T22:36:37.644Z,0.60
2023-06-28T22:39:07.345Z,0.68
2023-06-28T22:41:34.577Z,0.50
2023-06-28T22:44:01.720Z,0.50
2023-06-28T22:46:28.918Z,0.50
2023-06-28T22:48:56.053Z,0.60
2023-06-28T22:51:23.375Z,0.60
2023-06-28T22:53:50.504Z,0.70
2023-06-28T22:56:18.286Z,0.60
2023-06-28T22:58:45.856Z,0.55
2023-06-28T23:01:13.141Z,0.55
2023-06-28T23:03:40.397Z,0.52
2023-06-28T23:06:07.734Z,0.55
2023-06-28T23:08:36.642Z,0.50
2023-06-28T23:11:03.840Z,0.50
2023-06-28T23:13:30.925Z,0.45
2023-06-28T23:16:00.438Z,0.50
2023-06-28T23:18:27.503Z,0.50
2023-06-28T23:20:58.549Z,0.50
2023-06-28T23:23:26.071Z,0.70
2023-06-28T23:25:53.210Z,0.70
2023-06-28T23:28:22.059Z,0.70
2023-06-28T23:30:51.533Z,0.65
2023-06-28T23:33:18.840Z,0.60
2023-06-28T23:35:46.674Z,0.60
2023-06-28T23:38:14.504Z,0.60
2023-06-28T23:40:47.371Z,0.60
2023-06-28T23:43:14.549Z,0.70
2023-06-28T23:45:42.782Z,0.63
2023-06-28T23:48:10.556Z,0.57
2023-06-28T23:50:37.806Z,0.65
2023-06-28T23:53:05.083Z,0.55
2023-06-28T23:55:34.647Z,0.55
2023-06-28T23:58:02.422Z,0.60
